createdAt,value
2018-05-23T00:00:28.730Z,45.68
2018-05-23T00:01:35.275Z,45.74
2018-05-23T00:02:41.046Z,45.77
2018-05-23T00:03:46.803Z,45.86
2018-05-23T00:04:53.015Z,45.89
2018-05-23T00:05:59.202Z,46.02
2018-05-23T00:07:04.988Z,46.15
2018-05-23T00:08:10.741Z,46.26
2018-05-23T00:09:16.507Z,46.32
2018-05-23T00:10:23.037Z,46.45
2018-05-23T00:11:28.791Z,46.55
2018-05-23T00:12:34.585Z,46.76
2018-05-23T00:13:40.375Z,46.73
2018-05-23T00:14:46.127Z,46.76
2018-05-23T00:15:52.856Z,46.94
2018-05-23T00:16:58.614Z,46.97
2018-05-23T00:18:04.392Z,46.92
2018-05-23T00:19:10.152Z,46.98
2018-05-23T00:20:15.908Z,46.89
2018-05-23T00:21:21.668Z,46.87
2018-05-23T00:22:27.420Z,46.96
2018-05-23T00:23:33.186Z,46.99
2018-05-23T00:24:39.703Z,46.92
2018-05-23T00:25:45.475Z,47.03
2018-05-23T00:26:52.003Z,47.03
2018-05-23T00:27:57.773Z,47.08
2018-05-23T00:29:04.325Z,47.09
2018-05-23T00:30:09.874Z,47.26
2018-05-23T00:31:15.649Z,47.31
2018-05-23T00:32:21.402Z,47.30
2018-05-23T00:33:27.390Z,47.40
2018-05-23T00:34:33.163Z,47.45
2018-05-23T00:35:38.931Z,47.50
2018-05-23T00:36:44.687Z,47.54
2018-05-23T00:37:50.518Z,47.64
2018-05-23T00:38:56.419Z,47.73
2018-05-23T00:40:02.980Z,47.64
2018-05-23T00:41:09.297Z,47.70
2018-05-23T00:42:15.060Z,47.72
2018-05-23T00:43:21.259Z,47.79
2018-05-23T00:44:27.024Z,47.91
2018-05-23T00:45:32.807Z,47.95
2018-05-23T00:46:38.550Z,47.90
2018-05-23T00:47:44.297Z,47.94
2018-05-23T00:48:50.829Z,47.98
2018-05-23T00:49:56.594Z,47.96
2018-05-23T00:51:02.369Z,47.96
2018-05-23T00:52:07.866Z,48.00
2018-05-23T00:53:13.618Z,47.98
2018-05-23T00:54:20.132Z,48.03
2018-05-23T00:55:34.726Z,48.11
2018-05-23T00:56:41.270Z,48.36
2018-05-23T00:57:47.036Z,48.43
2018-05-23T00:58:53.545Z,48.46
2018-05-23T00:59:59.657Z,48.51
2018-05-23T01:01:05.407Z,48.64
2018-05-23T01:02:11.195Z,48.65
2018-05-23T01:03:16.935Z,48.67
2018-05-23T01:04:22.690Z,48.64
2018-05-23T01:05:28.454Z,48.67
2018-05-23T01:06:34.970Z,48.76
2018-05-23T01:07:40.754Z,48.76
2018-05-23T01:08:47.259Z,48.78
2018-05-23T01:09:53.015Z,48.77
2018-05-23T01:10:58.555Z,48.90
2018-05-23T01:12:04.355Z,48.89
2018-05-23T01:13:09.791Z,48.96
2018-05-23T01:14:15.610Z,49.00
2018-05-23T01:15:22.124Z,49.00
2018-05-23T01:16:27.894Z,49.18
2018-05-23T01:17:33.646Z,49.22
2018-05-23T01:18:39.419Z,49.44
2018-05-23T01:19:45.176Z,49.37
2018-05-23T01:20:50.389Z,49.48
2018-05-23T01:21:56.132Z,49.49
2018-05-23T01:23:01.890Z,49.62
2018-05-23T01:24:07.678Z,49.64
2018-05-23T01:25:14.184Z,49.77
2018-05-23T01:26:19.933Z,49.93
2018-05-23T01:27:25.689Z,49.89
2018-05-23T01:28:31.437Z,49.97
2018-05-23T01:29:37.206Z,50.05
2018-05-23T01:30:42.946Z,50.04
2018-05-23T01:31:48.699Z,50.02
2018-05-23T01:32:55.206Z,50.05
2018-05-23T01:34:00.971Z,50.12
2018-05-23T01:35:06.739Z,50.17
2018-05-23T01:36:13.265Z,50.31
2018-05-23T01:37:19.016Z,50.37
2018-05-23T01:38:25.693Z,50.36
2018-05-23T01:39:32.207Z,50.45
2018-05-23T01:40:37.983Z,50.44
2018-05-23T01:41:43.745Z,50.52
2018-05-23T01:42:50.251Z,50.57
2018-05-23T01:43:55.459Z,50.55
2018-05-23T01:45:00.961Z,50.60
2018-05-23T01:46:07.496Z,50.66
2018-05-23T01:47:13.256Z,50.69
2018-05-23T01:48:19.005Z,50.74
2018-05-23T01:49:28.466Z,50.85
2018-05-23T01:50:34.215Z,50.84
2018-05-23T01:51:39.983Z,50.88
2018-05-23T01:52:45.735Z,50.81
2018-05-23T01:53:51.474Z,50.83
2018-05-23T01:54:57.232Z,50.78
2018-05-23T01:56:02.976Z,50.79
2018-05-23T01:57:09.510Z,50.79
2018-05-23T01:58:15.256Z,50.79
2018-05-23T01:59:21.025Z,50.79
2018-05-23T02:00:27.543Z,50.86
2018-05-23T02:01:33.288Z,50.97
2018-05-23T02:02:39.282Z,51.10
2018-05-23T02:03:45.800Z,51.23
2018-05-23T02:04:51.769Z,51.31
2018-05-23T02:05:57.511Z,51.36
2018-05-23T02:07:04.026Z,51.40
2018-05-23T02:08:09.791Z,51.44
2018-05-23T02:09:15.545Z,51.45
2018-05-23T02:10:21.321Z,51.51
2018-05-23T02:11:28.184Z,51.49
2018-05-23T02:12:33.939Z,51.47
2018-05-23T02:13:39.931Z,51.48
2018-05-23T02:14:45.685Z,51.51
2018-05-23T02:15:51.435Z,51.53
2018-05-23T02:16:57.191Z,51.59
2018-05-23T02:18:03.965Z,51.60
2018-05-23T02:19:11.395Z,51.66
2018-05-23T02:20:17.152Z,51.70
2018-05-23T02:21:22.900Z,51.75
2018-05-23T02:22:28.659Z,51.77
2018-05-23T02:23:35.192Z,51.84
2018-05-23T02:24:40.972Z,51.92
2018-05-23T02:25:46.400Z,51.97
2018-05-23T02:26:52.923Z,52.04
2018-05-23T02:27:58.675Z,52.12
2018-05-23T02:29:04.431Z,52.13
2018-05-23T02:30:10.242Z,52.17
2018-05-23T02:31:15.987Z,52.16
2018-05-23T02:32:21.765Z,52.20
2018-05-23T02:33:28.296Z,52.28
2018-05-23T02:34:34.033Z,52.30
2018-05-23T02:35:39.822Z,52.36
2018-05-23T02:36:45.576Z,52.39
2018-05-23T02:37:51.555Z,52.45
2018-05-23T02:38:57.304Z,52.52
2018-05-23T02:40:03.120Z,52.55
2018-05-23T02:41:08.896Z,52.61
2018-05-23T02:42:14.642Z,52.64
2018-05-23T02:43:20.620Z,52.74
2018-05-23T02:44:27.351Z,52.75
2018-05-23T02:45:33.108Z,52.82
2018-05-23T02:46:39.316Z,52.92
2018-05-23T02:47:45.079Z,53.00
2018-05-23T02:48:50.819Z,53.13
2018-05-23T02:49:56.601Z,53.22
2018-05-23T02:51:03.128Z,53.35
2018-05-23T02:52:08.916Z,53.50
2018-05-23T02:53:14.670Z,53.47
2018-05-23T02:54:20.463Z,53.55
2018-05-23T02:55:26.235Z,53.51
2018-05-23T02:56:31.983Z,53.53
2018-05-23T02:57:37.777Z,53.53
2018-05-23T02:58:43.714Z,53.54
2018-05-23T02:59:50.413Z,53.56
2018-05-23T03:00:56.487Z,53.59
2018-05-23T03:02:02.241Z,53.66
2018-05-23T03:03:08.158Z,53.64
2018-05-23T03:04:14.764Z,53.66
2018-05-23T03:05:20.512Z,53.61
2018-05-23T03:06:26.268Z,53.62
2018-05-23T03:07:32.085Z,53.64
2018-05-23T03:08:38.047Z,53.65
2018-05-23T03:09:43.818Z,53.65
2018-05-23T03:10:50.344Z,53.69
2018-05-23T03:11:56.094Z,53.67
2018-05-23T03:13:01.847Z,53.68
2018-05-23T03:14:07.623Z,53.76
2018-05-23T03:15:13.383Z,53.77
2018-05-23T03:16:19.127Z,53.75
2018-05-23T03:17:24.877Z,53.74
2018-05-23T03:18:30.625Z,53.71
2018-05-23T03:19:36.415Z,53.74
2018-05-23T03:20:42.951Z,53.78
2018-05-23T03:21:48.722Z,53.77
2018-05-23T03:22:54.488Z,53.86
2018-05-23T03:24:00.239Z,53.85
2018-05-23T03:25:05.358Z,53.87
2018-05-23T03:26:11.111Z,53.92
2018-05-23T03:27:16.874Z,53.96
2018-05-23T03:28:22.631Z,54.02
2018-05-23T03:29:28.400Z,53.95
2018-05-23T03:30:34.181Z,54.10
2018-05-23T03:31:39.988Z,54.10
2018-05-23T03:32:45.774Z,54.14
2018-05-23T03:33:51.527Z,54.13
2018-05-23T03:34:57.318Z,54.07
2018-05-23T03:36:03.107Z,54.12
2018-05-23T03:37:08.876Z,54.03
2018-05-23T03:38:15.401Z,53.95
2018-05-23T03:39:21.195Z,53.92
2018-05-23T03:40:27.707Z,53.88
2018-05-23T03:41:33.480Z,53.86
2018-05-23T03:42:40.010Z,53.84
2018-05-23T03:43:45.560Z,53.83
2018-05-23T03:44:51.307Z,53.84
2018-05-23T03:45:58.048Z,53.82
2018-05-23T03:47:03.832Z,53.77
2018-05-23T03:48:10.355Z,53.73
2018-05-23T03:49:16.103Z,53.68
2018-05-23T03:50:21.859Z,53.62
2018-05-23T03:51:27.611Z,53.63
2018-05-23T03:52:34.165Z,53.58
2018-05-23T03:53:40.697Z,53.57
2018-05-23T03:54:46.448Z,53.52
2018-05-23T03:55:52.206Z,53.54
2018-05-23T03:56:58.946Z,53.55
2018-05-23T03:58:04.722Z,53.57
2018-05-23T03:59:11.623Z,53.55
2018-05-23T04:00:33.919Z,53.54
2018-05-23T04:01:56.552Z,53.50
2018-05-23T04:03:19.863Z,53.50
2018-05-23T04:04:42.377Z,53.50
2018-05-23T04:06:04.868Z,53.47
2018-05-23T04:07:30.240Z,53.55
2018-05-23T04:08:35.835Z,53.55
2018-05-23T04:09:41.711Z,53.54
2018-05-23T04:10:47.594Z,53.48
2018-05-23T04:11:54.135Z,53.37
2018-05-23T04:12:59.914Z,53.34
2018-05-23T04:14:07.036Z,53.34
2018-05-23T04:15:12.789Z,53.29
2018-05-23T04:16:18.563Z,53.22
2018-05-23T04:17:25.084Z,53.20
2018-05-23T04:18:30.575Z,53.13
2018-05-23T04:19:36.352Z,53.11
2018-05-23T04:20:42.167Z,53.07
2018-05-23T04:21:48.254Z,52.98
2018-05-23T04:22:54.055Z,52.91
2018-05-23T04:23:59.819Z,52.86
2018-05-23T04:25:05.720Z,52.86
2018-05-23T04:26:12.242Z,52.84
2018-05-23T04:27:18.004Z,52.82
2018-05-23T04:28:23.769Z,52.82
2018-05-23T04:29:29.541Z,52.81
2018-05-23T04:30:35.367Z,52.85
2018-05-23T04:31:41.356Z,52.82
2018-05-23T04:32:47.140Z,52.81
2018-05-23T04:33:53.119Z,52.78
2018-05-23T04:34:58.887Z,52.79
2018-05-23T04:36:04.682Z,52.77
2018-05-23T04:37:10.445Z,52.74
2018-05-23T04:38:16.208Z,52.69
2018-05-23T04:39:22.076Z,52.74
2018-05-23T04:40:28.713Z,52.74
2018-05-23T04:41:34.484Z,52.74
2018-05-23T04:42:40.247Z,52.76
2018-05-23T04:43:46.016Z,52.64
2018-05-23T04:44:52.562Z,52.53
2018-05-23T04:45:58.340Z,52.41
2018-05-23T04:47:04.144Z,52.38
2018-05-23T04:48:09.908Z,52.35
2018-05-23T04:49:15.666Z,52.34
2018-05-23T04:50:21.459Z,52.31
2018-05-23T04:51:27.987Z,52.34
2018-05-23T04:52:33.856Z,52.26
2018-05-23T04:53:40.388Z,52.13
2018-05-23T04:54:45.821Z,52.09
2018-05-23T04:55:51.603Z,51.92
2018-05-23T04:56:57.370Z,51.85
2018-05-23T04:58:03.188Z,51.75
2018-05-23T04:59:09.167Z,51.63
2018-05-23T05:00:15.846Z,51.47
2018-05-23T05:01:21.601Z,51.36
2018-05-23T05:02:27.388Z,51.22
2018-05-23T05:03:33.178Z,51.25
2018-05-23T05:04:38.927Z,51.24
2018-05-23T05:05:44.688Z,51.14
2018-05-23T05:06:51.203Z,51.10
2018-05-23T05:07:56.978Z,51.05
2018-05-23T05:09:02.769Z,51.06
2018-05-23T05:10:08.546Z,50.96
2018-05-23T05:11:14.519Z,50.77
2018-05-23T05:12:21.374Z,50.66
2018-05-23T05:13:27.926Z,50.68
2018-05-23T05:14:33.940Z,50.69
2018-05-23T05:15:39.683Z,50.64
2018-05-23T05:16:45.458Z,50.54
2018-05-23T05:17:51.231Z,50.50
2018-05-23T05:18:57.771Z,50.38
2018-05-23T05:20:03.563Z,50.20
2018-05-23T05:21:09.328Z,50.20
2018-05-23T05:22:15.092Z,50.20
2018-05-23T05:23:20.861Z,50.05
2018-05-23T05:24:27.384Z,50.09
2018-05-23T05:25:32.823Z,50.02
2018-05-23T05:26:38.605Z,49.99
2018-05-23T05:27:44.371Z,49.93
2018-05-23T05:28:50.141Z,49.86
2018-05-23T05:29:56.031Z,49.77
2018-05-23T05:31:01.807Z,49.71
2018-05-23T05:32:07.568Z,49.67
2018-05-23T05:33:13.333Z,49.65
2018-05-23T05:34:19.101Z,49.69
2018-05-23T05:35:24.875Z,49.71
2018-05-23T05:36:30.661Z,49.69
2018-05-23T05:37:37.186Z,49.76
2018-05-23T05:38:43.028Z,49.71
2018-05-23T05:39:49.696Z,49.64
2018-05-23T05:40:55.467Z,49.64
2018-05-23T05:42:01.554Z,49.45
2018-05-23T05:43:07.366Z,49.40
2018-05-23T05:44:14.448Z,49.37
2018-05-23T05:45:20.059Z,49.33
2018-05-23T05:46:25.823Z,49.31
2018-05-23T05:47:32.363Z,49.30
2018-05-23T05:48:40.332Z,49.30
2018-05-23T05:49:46.468Z,49.30
2018-05-23T05:50:52.216Z,49.17
2018-05-23T05:51:57.995Z,49.10
2018-05-23T05:53:04.548Z,49.03
2018-05-23T05:54:10.319Z,48.97
2018-05-23T05:55:16.071Z,49.00
2018-05-23T05:56:21.827Z,48.89
2018-05-23T05:57:27.255Z,48.74
2018-05-23T05:58:33.803Z,48.55
2018-05-23T05:59:39.572Z,48.32
2018-05-23T06:00:45.326Z,48.20
2018-05-23T06:01:51.097Z,47.97
2018-05-23T06:02:57.833Z,47.57
2018-05-23T06:04:03.612Z,46.83
2018-05-23T06:05:10.132Z,45.94
2018-05-23T06:06:15.887Z,44.72
2018-05-23T06:07:21.637Z,43.68
2018-05-23T06:08:27.389Z,42.64
2018-05-23T06:09:33.215Z,41.43
2018-05-23T06:10:39.141Z,40.11
2018-05-23T06:11:44.901Z,38.74
2018-05-23T06:12:50.654Z,37.73
2018-05-23T06:13:56.411Z,36.88
2018-05-23T06:15:02.958Z,35.85
2018-05-23T06:16:08.723Z,35.09
2018-05-23T06:17:15.071Z,34.22
2018-05-23T06:18:21.591Z,33.76
2018-05-23T06:19:27.352Z,33.18
2018-05-23T06:20:33.139Z,32.81
2018-05-23T06:21:38.890Z,32.28
2018-05-23T06:22:44.634Z,31.80
2018-05-23T06:23:50.727Z,31.37
2018-05-23T06:24:56.479Z,30.87
2018-05-23T06:26:02.253Z,30.53
2018-05-23T06:27:07.996Z,30.15
2018-05-23T06:28:13.744Z,29.57
2018-05-23T06:29:19.492Z,29.28
2018-05-23T06:30:25.270Z,29.09
2018-05-23T06:31:31.220Z,28.62
2018-05-23T06:32:36.987Z,28.41
2018-05-23T06:33:43.550Z,28.25
2018-05-23T06:34:49.323Z,27.88
2018-05-23T06:35:55.082Z,27.67
2018-05-23T06:37:00.873Z,27.38
2018-05-23T06:38:07.391Z,27.08
2018-05-23T06:39:13.155Z,26.68
2018-05-23T06:40:18.916Z,26.29
2018-05-23T06:41:25.432Z,26.17
2018-05-23T06:42:31.198Z,26.16
2018-05-23T06:43:37.007Z,26.06
2018-05-23T06:44:43.715Z,25.88
2018-05-23T06:45:50.265Z,25.65
2018-05-23T06:46:56.013Z,25.45
2018-05-23T06:48:01.779Z,25.23
2018-05-23T06:49:07.523Z,24.87
2018-05-23T06:50:13.271Z,24.87
2018-05-23T06:51:19.023Z,24.55
2018-05-23T06:52:24.779Z,24.19
2018-05-23T06:53:30.557Z,24.43
2018-05-23T06:54:37.082Z,24.40
2018-05-23T06:55:42.904Z,24.38
2018-05-23T06:56:48.794Z,24.27
2018-05-23T06:57:54.563Z,24.00
2018-05-23T06:59:01.113Z,23.88
2018-05-23T07:00:07.629Z,23.39
2018-05-23T07:01:13.375Z,23.30
2018-05-23T07:02:19.115Z,23.18
2018-05-23T07:03:24.866Z,23.10
2018-05-23T07:04:30.641Z,23.06
2018-05-23T07:05:37.174Z,23.00
2018-05-23T07:06:42.955Z,22.98
2018-05-23T07:07:48.723Z,22.65
2018-05-23T07:08:54.483Z,22.21
2018-05-23T07:10:00.259Z,22.26
2018-05-23T07:11:06.112Z,22.38
2018-05-23T07:12:12.007Z,22.07
2018-05-23T07:13:17.751Z,21.73
2018-05-23T07:14:23.509Z,21.61
2018-05-23T07:15:29.308Z,21.50
2018-05-23T07:16:35.116Z,21.45
2018-05-23T07:17:40.877Z,21.40
2018-05-23T07:18:47.443Z,21.35
2018-05-23T07:19:53.707Z,21.21
2018-05-23T07:21:00.337Z,20.76
2018-05-23T07:22:06.086Z,20.39
2018-05-23T07:23:12.608Z,19.98
2018-05-23T07:24:18.366Z,19.92
2018-05-23T07:25:24.117Z,20.34
2018-05-23T07:26:29.919Z,20.45
2018-05-23T07:27:35.659Z,20.82
2018-05-23T07:28:41.405Z,20.98
2018-05-23T07:29:47.179Z,21.14
2018-05-23T07:30:52.942Z,21.04
2018-05-23T07:31:58.714Z,20.90
2018-05-23T07:33:04.465Z,20.55
2018-05-23T07:34:10.219Z,20.36
2018-05-23T07:35:15.987Z,20.32
2018-05-23T07:36:21.731Z,19.93
2018-05-23T07:37:28.282Z,19.37
2018-05-23T07:38:34.031Z,18.89
2018-05-23T07:39:39.766Z,18.91
2018-05-23T07:40:45.508Z,18.89
2018-05-23T07:41:51.267Z,18.55
2018-05-23T07:42:57.037Z,18.60
2018-05-23T07:44:02.787Z,18.67
2018-05-23T07:45:09.339Z,18.49
2018-05-23T07:46:15.091Z,18.48
2018-05-23T07:47:21.604Z,18.63
2018-05-23T07:48:27.378Z,18.72
2018-05-23T07:49:33.131Z,18.54
2018-05-23T07:50:39.649Z,18.60
2018-05-23T07:51:45.427Z,18.85
2018-05-23T07:52:51.171Z,19.15
2018-05-23T07:53:57.711Z,19.20
2018-05-23T07:55:03.466Z,18.65
2018-05-23T07:56:09.241Z,18.46
2018-05-23T07:57:14.331Z,18.27
2018-05-23T07:58:20.073Z,18.09
2018-05-23T07:59:25.852Z,17.95
2018-05-23T08:00:31.609Z,17.96
2018-05-23T08:01:37.375Z,17.83
2018-05-23T08:02:43.186Z,17.69
2018-05-23T08:03:48.932Z,17.40
2018-05-23T08:04:54.708Z,17.18
2018-05-23T08:06:00.460Z,16.87
2018-05-23T08:07:05.875Z,16.75
2018-05-23T08:08:11.626Z,16.80
2018-05-23T08:09:17.268Z,16.49
2018-05-23T08:10:23.030Z,16.30
2018-05-23T08:11:29.559Z,16.30
2018-05-23T08:12:35.815Z,16.28
2018-05-23T08:13:42.066Z,15.82
2018-05-23T08:14:48.322Z,15.75
2018-05-23T08:15:54.578Z,15.63
2018-05-23T08:17:00.831Z,15.55
2018-05-23T08:18:06.742Z,15.41
2018-05-23T08:19:12.222Z,15.66
2018-05-23T08:20:17.711Z,15.80
2018-05-23T08:21:23.217Z,15.90
2018-05-23T08:22:28.751Z,15.91
2018-05-23T08:23:34.241Z,15.94
2018-05-23T08:24:40.506Z,15.95
2018-05-23T08:25:46.959Z,15.80
2018-05-23T08:26:53.223Z,16.02
2018-05-23T08:27:58.721Z,15.92
2018-05-23T08:29:04.229Z,15.82
2018-05-23T08:30:09.718Z,15.89
2018-05-23T08:31:15.987Z,16.07
2018-05-23T08:32:21.495Z,16.06
2018-05-23T08:33:27.746Z,16.01
2018-05-23T08:34:33.233Z,15.87
2018-05-23T08:35:38.724Z,15.58
2018-05-23T08:36:45.182Z,15.66
2018-05-23T08:37:50.678Z,15.80
2018-05-23T08:38:56.160Z,16.12
2018-05-23T08:40:02.420Z,16.10
2018-05-23T08:41:08.663Z,16.53
2018-05-23T08:42:14.918Z,16.68
2018-05-23T08:43:21.195Z,17.09
2018-05-23T08:44:26.943Z,17.57
2018-05-23T08:45:33.475Z,17.78
2018-05-23T08:46:39.219Z,17.93
2018-05-23T08:47:44.977Z,18.24
2018-05-23T08:48:50.768Z,17.90
2018-05-23T08:49:56.525Z,17.93
2018-05-23T08:51:02.279Z,17.98
2018-05-23T08:52:08.038Z,17.95
2018-05-23T08:53:13.783Z,17.51
2018-05-23T08:54:19.567Z,17.73
2018-05-23T08:55:25.316Z,18.20
2018-05-23T08:56:31.075Z,18.58
2018-05-23T08:57:36.837Z,18.46
2018-05-23T08:58:42.584Z,18.12
2018-05-23T08:59:48.363Z,17.87
2018-05-23T09:00:54.121Z,17.46
2018-05-23T09:01:59.873Z,17.09
2018-05-23T09:03:05.623Z,17.23
2018-05-23T09:04:11.167Z,17.22
2018-05-23T09:05:16.938Z,17.15
2018-05-23T09:06:22.686Z,17.07
2018-05-23T09:07:29.207Z,17.31
2018-05-23T09:08:34.964Z,17.71
2018-05-23T09:09:40.710Z,17.60
2018-05-23T09:10:46.491Z,17.39
2018-05-23T09:11:53.001Z,17.39
2018-05-23T09:12:58.747Z,17.63
2018-05-23T09:14:04.511Z,17.75
2018-05-23T09:15:11.027Z,18.09
2018-05-23T09:16:16.808Z,18.26
2018-05-23T09:17:22.567Z,18.62
2018-05-23T09:18:29.081Z,18.33
2018-05-23T09:19:34.836Z,18.13
2018-05-23T09:20:40.600Z,18.47
2018-05-23T09:21:46.380Z,18.56
2018-05-23T09:22:52.138Z,18.65
2018-05-23T09:23:57.890Z,18.64
2018-05-23T09:25:03.651Z,18.61
2018-05-23T09:26:10.188Z,18.36
2018-05-23T09:27:15.992Z,18.30
2018-05-23T09:28:21.747Z,18.55
2018-05-23T09:29:27.496Z,18.98
2018-05-23T09:30:33.259Z,19.53
2018-05-23T09:31:39.017Z,19.62
2018-05-23T09:32:44.799Z,19.38
2018-05-23T09:33:50.548Z,19.40
2018-05-23T09:34:56.294Z,18.91
2018-05-23T09:36:02.059Z,18.67
2018-05-23T09:37:07.806Z,18.63
2018-05-23T09:38:13.571Z,18.26
2018-05-23T09:39:19.315Z,18.22
2018-05-23T09:40:25.066Z,18.34
2018-05-23T09:41:31.599Z,18.54
2018-05-23T09:42:37.347Z,18.87
2018-05-23T09:43:43.147Z,19.38
2018-05-23T09:44:48.940Z,19.70
2018-05-23T09:45:54.690Z,19.77
2018-05-23T09:47:00.457Z,19.91
2018-05-23T09:48:06.216Z,20.11
2018-05-23T09:49:11.990Z,20.70
2018-05-23T09:50:17.744Z,20.95
2018-05-23T09:51:23.491Z,21.06
2018-05-23T09:52:29.270Z,21.09
2018-05-23T09:53:35.035Z,21.08
2018-05-23T09:54:40.803Z,21.38
2018-05-23T09:55:46.565Z,21.67
2018-05-23T09:56:52.355Z,22.24
2018-05-23T09:57:58.124Z,22.72
2018-05-23T09:59:03.870Z,23.18
2018-05-23T10:00:09.645Z,23.32
2018-05-23T10:01:16.175Z,23.49
2018-05-23T10:02:22.693Z,23.71
2018-05-23T10:03:28.254Z,23.85
2018-05-23T10:04:34.272Z,23.98
2018-05-23T10:05:40.354Z,23.86
2018-05-23T10:06:46.108Z,23.94
2018-05-23T10:07:51.869Z,24.06
2018-05-23T10:08:58.411Z,24.24
2018-05-23T10:10:03.926Z,24.50
2018-05-23T10:11:09.704Z,24.67
2018-05-23T10:12:15.476Z,24.79
2018-05-23T10:13:21.240Z,24.60
2018-05-23T10:14:27.003Z,24.45
2018-05-23T10:15:32.753Z,24.28
2018-05-23T10:16:38.333Z,24.22
2018-05-23T10:17:44.842Z,24.46
2018-05-23T10:18:50.607Z,24.79
2018-05-23T10:19:56.372Z,25.14
2018-05-23T10:21:02.910Z,25.16
2018-05-23T10:22:08.487Z,25.11
2018-05-23T10:23:14.243Z,24.92
2018-05-23T10:24:20.073Z,24.79
2018-05-23T10:25:25.834Z,24.82
2018-05-23T10:26:31.576Z,24.65
2018-05-23T10:27:37.537Z,24.75
2018-05-23T10:28:43.318Z,24.66
2018-05-23T10:29:49.845Z,24.51
2018-05-23T10:30:55.615Z,24.16
2018-05-23T10:32:02.134Z,24.15
2018-05-23T10:33:07.680Z,24.18
2018-05-23T10:34:13.414Z,24.18
2018-05-23T10:35:18.961Z,24.32
2018-05-23T10:36:24.707Z,24.39
2018-05-23T10:37:30.459Z,24.30
2018-05-23T10:38:36.239Z,24.37
2018-05-23T10:39:42.000Z,24.35
2018-05-23T10:40:47.759Z,24.34
2018-05-23T10:41:53.510Z,24.36
2018-05-23T10:43:00.043Z,24.59
2018-05-23T10:44:05.491Z,24.61
2018-05-23T10:45:11.243Z,24.36
2018-05-23T10:46:17.101Z,24.21
2018-05-23T10:47:23.767Z,24.38
2018-05-23T10:48:30.300Z,24.62
2018-05-23T10:49:36.077Z,24.82
2018-05-23T10:50:42.144Z,24.81
2018-05-23T10:51:47.959Z,24.75
2018-05-23T10:52:53.869Z,24.20
2018-05-23T10:53:59.439Z,24.01
2018-05-23T10:55:04.879Z,23.96
2018-05-23T10:56:10.631Z,24.05
2018-05-23T10:57:17.251Z,24.19
2018-05-23T10:58:23.123Z,24.29
2018-05-23T10:59:28.870Z,24.33
2018-05-23T11:00:35.411Z,24.25
2018-05-23T11:01:41.179Z,24.22
2018-05-23T11:02:47.765Z,24.44
2018-05-23T11:03:53.673Z,24.61
2018-05-23T11:04:59.432Z,24.63
2018-05-23T11:06:05.978Z,24.79
2018-05-23T11:07:11.729Z,24.86
2018-05-23T11:08:18.244Z,24.73
2018-05-23T11:09:24.329Z,24.90
2018-05-23T11:10:30.075Z,25.21
2018-05-23T11:11:36.615Z,25.45
2018-05-23T11:12:42.382Z,25.63
2018-05-23T11:13:48.903Z,25.94
2018-05-23T11:14:54.690Z,26.07
2018-05-23T11:16:01.422Z,26.00
2018-05-23T11:17:07.196Z,26.08
2018-05-23T11:18:13.722Z,26.30
2018-05-23T11:19:19.481Z,26.26
2018-05-23T11:20:25.231Z,26.27
2018-05-23T11:21:31.761Z,26.21
2018-05-23T11:22:37.546Z,26.05
2018-05-23T11:23:43.294Z,26.07
2018-05-23T11:24:49.054Z,26.06
2018-05-23T11:25:54.812Z,26.22
2018-05-23T11:27:00.593Z,26.20
2018-05-23T11:28:06.567Z,26.17
2018-05-23T11:29:12.317Z,26.03
2018-05-23T11:30:18.090Z,26.01
2018-05-23T11:31:23.837Z,25.79
2018-05-23T11:32:29.596Z,25.64
2018-05-23T11:33:35.638Z,25.58
2018-05-23T11:34:41.400Z,25.56
2018-05-23T11:35:47.936Z,25.54
2018-05-23T11:36:53.686Z,25.51
2018-05-23T11:37:59.466Z,25.29
2018-05-23T11:39:04.359Z,25.22
2018-05-23T11:40:10.887Z,25.36
2018-05-23T11:41:16.819Z,25.16
2018-05-23T11:42:22.582Z,25.11
2018-05-23T11:43:28.342Z,25.13
2018-05-23T11:44:34.126Z,25.20
2018-05-23T11:45:39.887Z,25.32
2018-05-23T11:46:45.648Z,25.24
2018-05-23T11:47:51.412Z,24.98
2018-05-23T11:48:57.941Z,24.86
2018-05-23T11:50:03.945Z,24.77
2018-05-23T11:51:09.688Z,24.85
2018-05-23T11:52:15.505Z,24.98
2018-05-23T11:53:22.162Z,25.06
2018-05-23T11:54:27.933Z,25.04
2018-05-23T11:55:33.712Z,25.03
2018-05-23T11:56:39.469Z,25.00
2018-05-23T11:57:45.227Z,24.81
2018-05-23T11:58:50.982Z,24.82
2018-05-23T11:59:57.507Z,24.93
2018-05-23T12:01:03.281Z,24.90
2018-05-23T12:02:09.799Z,25.00
2018-05-23T12:03:15.566Z,25.07
2018-05-23T12:04:22.102Z,25.20
2018-05-23T12:05:27.856Z,25.42
2018-05-23T12:06:34.415Z,25.49
2018-05-23T12:07:39.876Z,25.52
2018-05-23T12:08:46.426Z,25.46
2018-05-23T12:09:52.170Z,25.53
2018-05-23T12:10:57.919Z,25.46
2018-05-23T12:12:03.691Z,25.48
2018-05-23T12:13:09.439Z,25.43
2018-05-23T12:14:15.192Z,25.21
2018-05-23T12:15:20.951Z,25.03
2018-05-23T12:17:32.670Z,25.02
2018-05-23T12:18:39.203Z,25.05
2018-05-23T12:19:45.472Z,24.92
2018-05-23T12:20:51.368Z,25.07
2018-05-23T12:21:57.131Z,25.39
2018-05-23T12:23:02.934Z,25.58
2018-05-23T12:24:09.462Z,25.57
2018-05-23T12:25:15.995Z,25.50
2018-05-23T12:26:21.755Z,25.51
2018-05-23T12:27:27.530Z,25.55
2018-05-23T12:28:34.199Z,25.57
2018-05-23T12:29:40.732Z,25.56
2018-05-23T12:30:46.504Z,25.50
2018-05-23T12:31:52.346Z,25.35
2018-05-23T12:32:58.147Z,25.34
2018-05-23T12:34:03.923Z,25.36
2018-05-23T12:35:09.773Z,25.46
2018-05-23T12:36:15.537Z,25.47
2018-05-23T12:37:21.304Z,25.52
2018-05-23T12:38:27.067Z,25.58
2018-05-23T12:39:32.851Z,25.38
2018-05-23T12:40:38.605Z,25.54
2018-05-23T12:41:44.360Z,25.60
2018-05-23T12:42:50.221Z,25.66
2018-05-23T12:43:55.985Z,25.52
2018-05-23T12:45:02.128Z,25.62
2018-05-23T12:46:07.879Z,25.62
2018-05-23T12:47:14.403Z,25.72
2018-05-23T12:48:20.165Z,25.90
2018-05-23T12:49:25.924Z,25.93
2018-05-23T12:50:32.130Z,25.72
2018-05-23T12:51:37.967Z,25.39
2018-05-23T12:52:43.737Z,25.22
2018-05-23T12:53:49.499Z,25.43
2018-05-23T12:54:55.268Z,25.41
2018-05-23T12:56:01.044Z,25.26
2018-05-23T12:57:06.807Z,25.15
2018-05-23T12:58:12.570Z,25.24
2018-05-23T12:59:19.723Z,25.35
2018-05-23T13:00:25.487Z,25.39
2018-05-23T13:01:32.040Z,25.50
2018-05-23T13:02:38.595Z,25.25
2018-05-23T13:03:46.051Z,25.31
2018-05-23T13:04:51.828Z,25.67
2018-05-23T13:05:58.373Z,25.82
2018-05-23T13:07:04.239Z,25.74
2018-05-23T13:08:10.788Z,25.65
2018-05-23T13:09:17.322Z,25.63
2018-05-23T13:10:23.100Z,25.58
2018-05-23T13:11:28.875Z,25.46
2018-05-23T13:12:34.495Z,25.60
2018-05-23T13:13:40.394Z,25.51
2018-05-23T13:14:46.161Z,25.57
2018-05-23T13:15:51.588Z,25.59
2018-05-23T13:16:57.348Z,25.57
2018-05-23T13:18:03.885Z,25.54
2018-05-23T13:19:09.639Z,25.44
2018-05-23T13:20:15.574Z,25.51
2018-05-23T13:21:21.664Z,25.54
2018-05-23T13:22:27.428Z,25.69
2018-05-23T13:23:33.225Z,25.80
2018-05-23T13:24:39.736Z,25.78
2018-05-23T13:25:45.501Z,25.99
2018-05-23T13:26:51.468Z,25.99
2018-05-23T13:27:57.994Z,26.15
2018-05-23T13:29:03.794Z,26.35
2018-05-23T13:30:10.220Z,26.40
2018-05-23T13:31:16.150Z,26.46
2018-05-23T13:32:21.915Z,26.45
2018-05-23T13:33:28.437Z,26.36
2018-05-23T13:34:34.459Z,26.24
2018-05-23T13:35:40.211Z,26.22
2018-05-23T13:36:46.012Z,26.15
2018-05-23T13:37:52.553Z,26.16
2018-05-23T13:38:58.317Z,26.11
2018-05-23T13:40:05.124Z,25.83
2018-05-23T13:41:10.883Z,25.79
2018-05-23T13:42:16.638Z,25.76
2018-05-23T13:43:22.412Z,25.71
2018-05-23T13:44:28.185Z,25.69
2018-05-23T13:45:33.964Z,25.57
2018-05-23T13:46:39.725Z,25.58
2018-05-23T13:47:46.253Z,25.78
2018-05-23T13:48:52.021Z,25.96
2018-05-23T13:49:57.832Z,26.11
2018-05-23T13:51:03.611Z,26.16
2018-05-23T13:52:10.134Z,26.15
2018-05-23T13:53:15.894Z,26.23
2018-05-23T13:54:22.419Z,26.29
2018-05-23T13:55:29.222Z,26.32
2018-05-23T13:56:35.081Z,26.07
2018-05-23T13:57:41.604Z,26.16
2018-05-23T13:58:47.363Z,26.26
2018-05-23T13:59:53.119Z,26.43
2018-05-23T14:00:59.652Z,26.54
2018-05-23T14:02:05.191Z,26.49
2018-05-23T14:03:10.982Z,26.50
2018-05-23T14:04:16.742Z,26.41
2018-05-23T14:05:22.503Z,26.43
2018-05-23T14:06:28.860Z,26.53
2018-05-23T14:07:34.744Z,26.68
2018-05-23T14:08:41.266Z,26.53
2018-05-23T14:09:47.046Z,26.33
2018-05-23T14:10:53.020Z,26.35
2018-05-23T14:11:58.775Z,26.44